Time;durP1;ratioP1;P1;durP2;ratioP2;P2;SDS_P1;SDS_P2;PMS_P1;PMS_P2;Temp;Humidity;BMP_temperature;BMP_pressure;BME280_temperature;BME280_humidity;BME280_pressure;Samples;Min_cycle;Max_cycle;Signal;HPM_P1;HPM_P2
2021/04/13 00:02:38;;;;;;;13.15;8.15;;;2.20;99.90;;;;;;5051217;28;20480;-64
2021/04/13 00:05:27;;;;;;;11.88;7.82;;;2.20;99.90;;;;;;5050618;28;20392;-65
2021/04/13 00:07:54;;;;;;;14.13;8.63;;;2.20;99.90;;;;;;5039903;28;20759;-64
2021/04/13 00:10:34;;;;;;;14.95;8.77;;;2.30;99.90;;;;;;5051060;28;20920;-65
2021/04/13 00:13:01;;;;;;;14.38;8.65;;;2.30;99.90;;;;;;5050229;28;20417;-66
2021/04/13 00:15:31;;;;;;;14.82;9.52;;;2.40;99.90;;;;;;5051020;28;20839;-65
2021/04/13 00:17:58;;;;;;;14.07;10.40;;;2.40;99.90;;;;;;5050501;28;20850;-65
2021/04/13 00:20:35;;;;;;;24.65;16.83;;;2.40;99.90;;;;;;5052942;28;20846;-65
2021/04/13 00:23:02;;;;;;;32.35;21.50;;;2.50;99.90;;;;;;5069094;28;20466;-65
2021/04/13 00:25:34;;;;;;;39.03;28.02;;;2.50;99.90;;;;;;5070378;28;20414;-64
2021/04/13 00:28:00;;;;;;;39.75;29.90;;;2.50;99.90;;;;;;5067967;28;20412;-65
2021/04/13 00:30:29;;;;;;;41.83;29.80;;;2.50;99.90;;;;;;5070244;28;20379;-65
2021/04/13 00:33:01;;;;;;;39.63;27.50;;;2.60;99.90;;;;;;5067724;28;20437;-65
2021/04/13 00:35:59;;;;;;;36.97;26.95;;;2.70;99.90;;;;;;5070373;28;20406;-63
2021/04/13 00:38:38;;;;;;;34.80;25.20;;;4.10;99.90;;;;;;5069813;28;20423;-65
2021/04/13 00:41:20;;;;;;;28.63;20.80;;;2.90;99.90;;;;;;5067744;28;21073;-64
2021/04/13 00:43:54;;;;;;;32.92;20.65;;;2.90;99.90;;;;;;5069615;28;20387;-64
2021/04/13 00:46:38;;;;;;;31.35;22.73;;;3.00;99.90;;;;;;5069003;28;20408;-65
2021/04/13 00:49:04;;;;;;;32.20;22.23;;;3.00;99.90;;;;;;5049645;28;20391;-65
2021/04/13 00:51:35;;;;;;;29.55;21.50;;;3.00;99.90;;;;;;5046488;28;20396;-64
2021/04/13 00:54:08;;;;;;;26.73;18.67;;;3.40;99.90;;;;;;5069397;28;20445;-65
2021/04/13 00:56:35;;;;;;;23.95;16.50;;;2.90;99.90;;;;;;5068374;28;20400;-64
2021/04/13 00:59:13;;;;;;;24.40;15.93;;;3.70;99.90;;;;;;5069416;28;20406;-64
2021/04/13 01:01:42;;;;;;;20.50;14.35;;;2.90;99.90;;;;;;5068330;28;20392;-64
2021/04/13 01:04:40;;;;;;;23.90;14.00;;;2.80;99.90;;;;;;5069960;28;20380;-64
2021/04/13 01:07:16;;;;;;;17.02;12.32;;;2.80;99.90;;;;;;5067771;28;20916;-64
2021/04/13 01:09:45;;;;;;;20.55;11.13;;;3.10;99.90;;;;;;5068390;28;20453;-60
2021/04/13 01:12:20;;;;;;;14.60;9.80;;;2.60;99.90;;;;;;5069774;28;20382;-64
2021/04/13 01:14:46;;;;;;;13.77;8.80;;;2.60;99.90;;;;;;5067720;28;20391;-60
2021/04/13 01:17:13;;;;;;;14.10;9.05;;;2.60;99.90;;;;;;5069639;28;20379;-64
2021/04/13 01:19:59;;;;;;;12.98;8.45;;;2.50;99.90;;;;;;5049894;28;20900;-64
2021/04/13 01:23:08;;;;;;;12.43;8.10;;;2.50;99.90;;;;;;5069972;28;20376;-64
2021/04/13 01:25:38;;;;;;;13.57;8.20;;;2.40;99.90;;;;;;5050173;28;20410;-63
2021/04/13 01:28:07;;;;;;;14.05;8.63;;;2.20;99.90;;;;;;5068905;28;21046;-64
2021/04/13 01:30:55;;;;;;;13.20;8.38;;;3.20;99.90;;;;;;5068159;28;20410;-64
2021/04/13 01:33:36;;;;;;;12.65;8.70;;;2.10;99.90;;;;;;5068589;28;20735;-64
2021/04/13 01:36:13;;;;;;;16.33;8.82;;;2.10;99.90;;;;;;5067024;28;20398;-64
2021/04/13 01:38:42;;;;;;;14.68;8.27;;;2.10;99.90;;;;;;5069431;28;20463;-64
2021/04/13 01:43:40;;;;;;;13.75;8.57;;;2.10;99.90;;;;;;5068513;28;20388;-64
2021/04/13 01:46:08;;;;;;;11.93;8.10;;;3.20;99.90;;;;;;5068175;28;20418;-64
2021/04/13 01:48:35;;;;;;;13.15;7.82;;;2.10;99.90;;;;;;5068728;28;20419;-65
2021/04/13 01:51:04;;;;;;;13.45;8.30;;;2.00;99.90;;;;;;5068880;28;20375;-65
2021/04/13 01:53:40;;;;;;;13.60;8.60;;;1.90;99.90;;;;;;5070644;28;20410;-65
2021/04/13 01:56:12;;;;;;;13.93;8.07;;;1.80;99.90;;;;;;5072644;28;20658;-65
2021/04/13 01:58:46;;;;;;;12.63;8.40;;;1.70;99.90;;;;;;5071639;28;20392;-65
2021/04/13 02:01:34;;;;;;;12.32;8.18;;;1.70;99.90;;;;;;5073497;28;20376;-65
2021/04/13 02:04:22;;;;;;;12.80;7.97;;;1.70;99.90;;;;;;5070926;28;20404;-65
2021/04/13 02:07:32;;;;;;;14.10;8.57;;;1.70;99.90;;;;;;5072594;28;20403;-64
2021/04/13 02:10:27;;;;;;;13.13;8.38;;;1.60;99.90;;;;;;5070510;28;20400;-64
2021/04/13 02:13:03;;;;;;;14.20;8.40;;;1.50;99.90;;;;;;5060574;28;20400;-63
2021/04/13 02:15:52;;;;;;;12.80;8.00;;;1.50;99.90;;;;;;5071612;28;20452;-64
2021/04/13 02:18:35;;;;;;;12.40;8.20;;;1.70;99.90;;;;;;5073412;28;20852;-64
2021/04/13 02:21:05;;;;;;;15.10;8.98;;;1.70;99.90;;;;;;5070050;28;20393;-65
2021/04/13 02:23:32;;;;;;;13.38;9.00;;;2.90;99.90;;;;;;5072836;28;20474;-63
2021/04/13 02:26:01;;;;;;;14.30;9.05;;;1.80;99.90;;;;;;5070637;28;20390;-65
2021/04/13 02:28:29;;;;;;;13.48;9.43;;;1.70;99.90;;;;;;5072973;28;20395;-64
2021/04/13 02:30:56;;;;;;;15.05;8.30;;;1.60;99.90;;;;;;5070470;28;20462;-62
2021/04/13 02:33:35;;;;;;;12.27;8.50;;;1.60;99.90;;;;;;5072762;28;20582;-64
2021/04/13 02:36:11;;;;;;;14.40;9.10;;;2.00;99.90;;;;;;5072359;28;20459;-64
2021/04/13 02:38:38;;;;;;;13.45;9.13;;;1.70;99.90;;;;;;5071010;28;20534;-64
2021/04/13 02:41:25;;;;;;;14.57;9.00;;;2.20;99.90;;;;;;5071300;28;21262;-64
2021/04/13 02:43:54;;;;;;;12.88;8.40;;;1.80;99.90;;;;;;5069731;28;20742;-64
2021/04/13 02:46:28;;;;;;;16.77;8.75;;;1.90;99.90;;;;;;5072329;28;20403;-64
2021/04/13 02:49:03;;;;;;;13.00;8.32;;;2.00;99.90;;;;;;5070020;28;20399;-64
2021/04/13 02:51:32;;;;;;;12.57;8.30;;;2.20;99.90;;;;;;5072570;28;20380;-64
2021/04/13 02:53:59;;;;;;;15.00;9.05;;;2.10;99.90;;;;;;5069797;28;20412;-64
2021/04/13 02:56:36;;;;;;;13.90;8.85;;;3.70;99.90;;;;;;5071091;28;21470;-64
2021/04/13 02:59:04;;;;;;;12.53;8.70;;;2.00;99.90;;;;;;5051031;28;20389;-64
2021/04/13 03:01:33;;;;;;;13.38;8.68;;;2.00;99.90;;;;;;5062126;28;20400;-65
2021/04/13 03:04:07;;;;;;;15.50;10.30;;;2.10;99.90;;;;;;5071332;28;20380;-64
2021/04/13 03:06:38;;;;;;;14.80;9.50;;;2.10;99.90;;;;;;5070699;28;20411;-64
2021/04/13 03:09:05;;;;;;;14.38;8.85;;;2.00;99.90;;;;;;5071371;28;20375;-64
2021/04/13 03:11:32;;;;;;;14.20;9.20;;;2.00;99.90;;;;;;5070727;28;20407;-64
2021/04/13 03:13:59;;;;;;;15.45;9.00;;;1.90;99.90;;;;;;5070693;28;20541;-64
2021/04/13 03:16:41;;;;;;;13.93;9.20;;;1.90;99.90;;;;;;5072215;28;20426;-65
2021/04/13 03:19:13;;;;;;;16.70;8.90;;;3.10;99.90;;;;;;5071304;28;20557;-64
2021/04/13 03:21:51;;;;;;;13.18;8.43;;;3.30;99.90;;;;;;5053649;28;20905;-64
2021/04/13 03:24:22;;;;;;;13.30;8.30;;;1.90;99.90;;;;;;5071412;28;20466;-64
2021/04/13 03:26:56;;;;;;;14.32;8.52;;;2.90;99.90;;;;;;5071570;28;20415;-60
2021/04/13 03:29:43;;;;;;;15.10;8.85;;;1.90;99.90;;;;;;5071548;28;20729;-64
2021/04/13 03:32:10;;;;;;;13.73;9.00;;;1.90;99.90;;;;;;5068081;28;20423;-64
2021/04/13 03:34:40;;;;;;;14.90;9.30;;;1.90;99.90;;;;;;5072409;28;20407;-64
2021/04/13 03:37:07;;;;;;;17.00;9.20;;;1.80;99.90;;;;;;5070896;28;20396;-64
2021/04/13 03:39:36;;;;;;;13.02;9.18;;;2.90;99.90;;;;;;5071414;28;20463;-64
2021/04/13 03:42:04;;;;;;;15.57;9.80;;;1.60;99.90;;;;;;5069475;28;20730;-63
2021/04/13 03:44:30;;;;;;;15.30;10.05;;;1.50;99.90;;;;;;5068344;28;20381;-64
2021/04/13 03:46:56;;;;;;;16.63;10.05;;;1.30;99.90;;;;;;5067449;28;20392;-64
2021/04/13 03:49:28;;;;;;;16.83;10.23;;;1.30;99.90;;;;;;5068223;28;20372;-60
2021/04/13 03:52:01;;;;;;;14.75;10.25;;;2.90;99.90;;;;;;5049427;28;20407;-63
2021/04/13 03:54:30;;;;;;;13.60;9.70;;;1.20;99.90;;;;;;5064779;28;20405;-61
2021/04/13 03:56:56;;;;;;;14.80;9.60;;;1.20;99.90;;;;;;5067962;28;20822;-64
2021/04/13 03:59:32;;;;;;;15.68;10.00;;;3.10;99.90;;;;;;5070129;28;20558;-64
2021/04/13 04:01:58;;;;;;;18.65;10.40;;;1.40;99.90;;;;;;5070056;28;20451;-64
2021/04/13 04:04:32;;;;;;;15.82;9.90;;;2.00;99.90;;;;;;5070497;28;20379;-64
2021/04/13 04:07:28;;;;;;;14.67;9.60;;;1.30;99.90;;;;;;5060778;28;20886;-64
2021/04/13 04:09:53;;;;;;;16.77;10.18;;;1.30;99.90;;;;;;5069641;28;20384;-64
2021/04/13 04:12:24;;;;;;;14.25;10.00;;;1.30;99.90;;;;;;5070860;28;20375;-64
2021/04/13 04:15:04;;;;;;;15.25;9.77;;;1.20;99.90;;;;;;5069725;28;20703;-62
2021/04/13 04:17:35;;;;;;;15.02;9.95;;;1.10;99.90;;;;;;5071080;28;20376;-65
2021/04/13 04:20:09;;;;;;;15.73;10.20;;;1.20;99.90;;;;;;5070181;28;20412;-69
2021/04/13 04:22:52;;;;;;;16.45;10.00;;;1.20;99.90;;;;;;5070948;28;20375;-65
2021/04/13 04:25:38;;;;;;;16.58;9.60;;;1.30;99.90;;;;;;5070720;28;20392;-64
2021/04/13 04:28:26;;;;;;;15.40;9.60;;;1.30;99.90;;;;;;5052042;28;20897;-65
2021/04/13 04:30:52;;;;;;;16.13;10.20;;;1.20;99.90;;;;;;5070062;28;20382;-64
2021/04/13 04:33:39;;;;;;;18.70;10.03;;;1.20;99.90;;;;;;5070464;28;20379;-64
2021/04/13 04:36:31;;;;;;;16.00;10.20;;;1.30;99.90;;;;;;5068470;28;20490;-65
2021/04/13 04:39:25;;;;;;;19.88;11.25;;;1.20;99.90;;;;;;5069790;28;20387;-64
2021/04/13 04:41:52;;;;;;;17.05;10.82;;;1.20;99.90;;;;;;5069553;28;20725;-65
2021/04/13 04:45:03;;;;;;;15.88;10.43;;;1.20;99.90;;;;;;5070347;28;20431;-64
2021/04/13 04:47:35;;;;;;;17.05;9.85;;;1.70;99.90;;;;;;5049789;28;20405;-64
2021/04/13 04:50:01;;;;;;;16.23;10.48;;;1.20;99.90;;;;;;5037951;28;20396;-64
2021/04/13 04:52:27;;;;;;;17.70;10.60;;;1.20;99.90;;;;;;5069988;28;20389;-64
2021/04/13 04:54:52;;;;;;;17.40;10.10;;;1.20;99.90;;;;;;5067860;28;20412;-63
2021/04/13 04:57:18;;;;;;;16.53;10.00;;;1.20;99.90;;;;;;5069781;28;20391;-64
2021/04/13 04:59:44;;;;;;;16.57;10.50;;;1.20;99.90;;;;;;5062417;28;20449;-64
2021/04/13 05:02:10;;;;;;;15.97;10.57;;;3.20;99.90;;;;;;5055950;28;20396;-64
2021/04/13 05:04:35;;;;;;;19.83;10.75;;;1.30;99.90;;;;;;5061195;28;20379;-64
2021/04/13 05:07:01;;;;;;;16.73;10.83;;;2.30;99.90;;;;;;5059953;28;20400;-65
2021/04/13 05:09:26;;;;;;;16.27;10.68;;;1.30;99.90;;;;;;5058936;28;20894;-64
2021/04/13 05:11:52;;;;;;;20.25;11.00;;;1.40;99.90;;;;;;5058057;28;20371;-64
2021/04/13 05:14:18;;;;;;;16.33;10.10;;;1.70;99.90;;;;;;5065930;28;20396;-64
2021/04/13 05:16:43;;;;;;;14.13;9.80;;;1.50;99.90;;;;;;5064228;28;20921;-64
2021/04/13 05:19:09;;;;;;;18.10;10.45;;;3.20;99.90;;;;;;5065360;28;20470;-64
2021/04/13 05:21:34;;;;;;;16.50;9.60;;;2.20;99.90;;;;;;5045687;28;20378;-63
2021/04/13 05:24:00;;;;;;;16.08;9.90;;;1.80;99.90;;;;;;5066537;28;20742;-64
2021/04/13 05:26:26;;;;;;;18.90;10.10;;;1.60;99.90;;;;;;5064338;28;20430;-64
2021/04/13 05:28:52;;;;;;;17.27;10.07;;;1.70;99.90;;;;;;5065574;28;20398;-64
2021/04/13 05:31:18;;;;;;;17.02;9.07;;;1.90;99.90;;;;;;5058720;28;20410;-64
2021/04/13 05:33:43;;;;;;;15.17;8.80;;;2.00;99.90;;;;;;5062267;28;20388;-64
2021/04/13 05:36:10;;;;;;;15.27;7.93;;;2.40;99.90;;;;;;5066986;28;20434;-64
2021/04/13 05:38:40;;;;;;;12.88;8.38;;;2.80;99.90;;;;;;5059928;28;20404;-63
2021/04/13 05:41:08;;;;;;;12.25;7.40;;;3.30;99.90;;;;;;5065766;28;20394;-64
2021/04/13 05:43:36;;;;;;;13.48;7.72;;;3.90;99.90;;;;;;5052097;28;20376;-65
2021/04/13 05:46:02;;;;;;;13.38;7.60;;;4.40;99.90;;;;;;5050293;28;20384;-60
2021/04/13 05:48:29;;;;;;;15.25;8.00;;;4.70;99.90;;;;;;5064555;28;20853;-63
2021/04/13 05:50:56;;;;;;;14.67;7.90;;;5.00;99.90;;;;;;5050725;28;20398;-61
2021/04/13 05:53:22;;;;;;;13.88;7.70;;;5.40;99.90;;;;;;5062162;28;20419;-61
2021/04/13 05:55:48;;;;;;;11.77;7.20;;;5.50;99.90;;;;;;5068389;28;20423;-62
2021/04/13 05:58:21;;;;;;;13.70;7.70;;;5.00;99.90;;;;;;5064866;28;20433;-62
2021/04/13 06:00:50;;;;;;;13.40;7.57;;;5.20;99.90;;;;;;5069775;28;20937;-62
2021/04/13 06:03:19;;;;;;;13.77;7.68;;;5.80;99.90;;;;;;5069469;28;20851;-63
2021/04/13 06:05:45;;;;;;;17.80;8.10;;;5.50;99.90;;;;;;5069653;28;20466;-63
2021/04/13 06:08:11;;;;;;;14.60;7.90;;;5.40;99.90;;;;;;5068272;28;20589;-66
2021/04/13 06:10:38;;;;;;;13.65;7.55;;;5.10;99.90;;;;;;5068870;28;20375;-64
2021/04/13 06:13:04;;;;;;;15.15;7.30;;;5.10;99.90;;;;;;5068447;28;20372;-63
2021/04/13 06:15:31;;;;;;;11.82;7.55;;;6.10;99.90;;;;;;5069223;28;20905;-65
2021/04/13 06:17:57;;;;;;;11.18;7.32;;;7.20;99.90;;;;;;5068567;28;20376;-66
2021/04/13 06:20:25;;;;;;;15.07;7.22;;;8.20;99.90;;;;;;5068431;28;20388;-66
2021/04/13 06:22:51;;;;;;;12.57;7.53;;;9.20;99.90;;;;;;5068505;28;20380;-61
2021/04/13 06:25:23;;;;;;;13.15;7.65;;;9.70;99.90;;;;;;5068677;28;20390;-64
2021/04/13 06:27:48;;;;;;;14.70;7.90;;;10.20;99.90;;;;;;5068825;28;20410;-61
2021/04/13 06:30:16;;;;;;;12.57;7.72;;;9.70;99.90;;;;;;5050653;28;20718;-66
2021/04/13 06:32:42;;;;;;;11.80;7.75;;;9.10;99.90;;;;;;5069324;28;20428;-66
2021/04/13 06:35:08;;;;;;;12.48;8.00;;;8.70;99.90;;;;;;5068307;28;20451;-66
2021/04/13 06:37:36;;;;;;;11.07;7.45;;;9.30;99.90;;;;;;5069084;28;20376;-65
2021/04/13 06:40:05;;;;;;;12.13;7.80;;;10.60;99.90;;;;;;5071517;28;20367;-67
2021/04/13 06:42:47;;;;;;;12.05;7.53;;;12.20;99.00;;;;;;5072552;28;20379;-65
2021/04/13 06:45:26;;;;;;;12.77;8.35;;;13.00;94.60;;;;;;5072198;28;20384;-63
2021/04/13 06:48:02;;;;;;;13.13;8.80;;;12.30;92.70;;;;;;5071903;28;20424;-60
2021/04/13 06:50:39;;;;;;;15.32;8.70;;;10.50;96.20;;;;;;5072392;28;20432;-65
2021/04/13 06:53:18;;;;;;;15.30;8.70;;;9.60;99.90;;;;;;5071831;28;20380;-65
2021/04/13 06:55:46;;;;;;;13.48;8.85;;;10.10;99.90;;;;;;5054429;28;20451;-64
2021/04/13 06:58:32;;;;;;;15.77;8.57;;;9.60;99.30;;;;;;5071795;28;20392;-65
2021/04/13 07:01:23;;;;;;;12.63;8.50;;;9.00;99.90;;;;;;5071592;28;20398;-64
2021/04/13 07:04:13;;;;;;;16.30;9.35;;;9.10;99.90;;;;;;5072264;28;20423;-60
2021/04/13 07:07:02;;;;;;;19.13;9.40;;;8.50;99.90;;;;;;5054713;28;20410;-64
2021/04/13 07:09:44;;;;;;;14.40;9.73;;;8.20;99.90;;;;;;5072355;28;20463;-62
2021/04/13 07:12:24;;;;;;;15.57;9.45;;;8.00;99.90;;;;;;5071574;28;20455;-65
2021/04/13 07:14:58;;;;;;;18.77;11.27;;;7.80;99.90;;;;;;5071827;28;20379;-61
2021/04/13 07:17:46;;;;;;;17.20;11.07;;;7.30;99.90;;;;;;5053964;28;20959;-62
2021/04/13 07:20:18;;;;;;;19.67;11.68;;;6.30;99.90;;;;;;5071266;28;20405;-61
2021/04/13 07:22:52;;;;;;;19.67;11.77;;;6.40;99.90;;;;;;5071824;28;20390;-62
2021/04/13 07:25:24;;;;;;;16.58;10.35;;;6.30;99.90;;;;;;5071466;28;20445;-62
2021/04/13 07:27:54;;;;;;;15.10;10.30;;;6.40;99.90;;;;;;5071466;28;20486;-60
2021/04/13 07:30:47;;;;;;;15.98;10.57;;;6.30;99.90;;;;;;5071674;28;20376;-61
2021/04/13 07:33:19;;;;;;;15.85;10.00;;;6.50;99.90;;;;;;5070899;28;20392;-62
2021/04/13 07:35:47;;;;;;;18.80;10.93;;;6.50;99.90;;;;;;5053710;28;20387;-62
2021/04/13 07:38:25;;;;;;;16.33;10.38;;;6.70;99.90;;;;;;5070268;28;20403;-61
2021/04/13 07:40:56;;;;;;;16.77;8.90;;;6.80;99.90;;;;;;5070935;28;20387;-58
2021/04/13 07:43:24;;;;;;;14.70;9.20;;;7.20;99.90;;;;;;5071988;28;20379;-65
2021/04/13 07:46:31;;;;;;;14.98;9.70;;;8.40;99.90;;;;;;5071013;28;20395;-58
2021/04/13 07:49:15;;;;;;;13.50;9.70;;;10.10;99.90;;;;;;5051055;28;20517;-60
2021/04/13 07:52:15;;;;;;;13.75;9.77;;;12.00;95.80;;;;;;5069337;28;20407;-62
2021/04/13 07:55:08;;;;;;;14.75;11.98;;;13.30;90.80;;;;;;5071053;28;20826;-66
2021/04/13 07:57:51;;;;;;;14.70;11.20;;;13.90;86.70;;;;;;5061568;28;20546;-65
2021/04/13 08:00:22;;;;;;;16.55;10.88;;;13.80;81.80;;;;;;5070810;28;20837;-65
2021/04/13 08:03:07;;;;;;;14.10;10.88;;;14.60;78.40;;;;;;5068900;28;20411;-65
2021/04/13 08:05:45;;;;;;;16.83;11.70;;;13.20;79.10;;;;;;5062557;28;20396;-62
2021/04/13 08:08:19;;;;;;;16.00;10.90;;;12.40;84.60;;;;;;5069438;28;20418;-63
2021/04/13 08:10:46;;;;;;;15.30;10.82;;;12.10;85.60;;;;;;5068888;28;20392;-62
2021/04/13 08:13:24;;;;;;;15.13;10.75;;;12.30;87.00;;;;;;5069809;28;20380;-65
2021/04/13 08:15:52;;;;;;;13.75;10.07;;;13.10;84.70;;;;;;5068378;28;20428;-61
2021/04/13 08:18:32;;;;;;;13.73;10.10;;;13.40;82.50;;;;;;5068639;28;20395;-65
2021/04/13 08:21:23;;;;;;;17.63;10.40;;;14.20;78.00;;;;;;5069129;28;20463;-63
2021/04/13 08:23:53;;;;;;;15.80;10.50;;;14.00;75.50;;;;;;5070588;28;20502;-61
2021/04/13 08:26:37;;;;;;;13.85;9.38;;;13.20;77.60;;;;;;5068162;28;20495;-64
2021/04/13 08:29:27;;;;;;;15.13;10.13;;;13.20;80.20;;;;;;5067874;28;20410;-65
2021/04/13 08:34:52;;;;;;;15.52;9.25;;;14.60;71.80;;;;;;5069411;28;20883;-65
2021/04/13 08:37:50;;;;;;;12.93;8.80;;;14.60;67.80;;;;;;5068917;28;20484;-65
2021/04/13 08:40:42;;;;;;;11.98;8.70;;;14.40;66.50;;;;;;5067562;28;20417;-64
2021/04/13 08:43:12;;;;;;;13.33;8.90;;;13.90;67.60;;;;;;5069386;28;20407;-62
2021/04/13 08:45:46;;;;;;;15.15;9.30;;;12.80;69.30;;;;;;5068323;28;20403;-63
2021/04/13 08:48:21;;;;;;;13.95;9.35;;;14.20;70.40;;;;;;5069412;28;20475;-65
2021/04/13 08:50:52;;;;;;;12.18;8.65;;;15.60;65.40;;;;;;5069413;28;20380;-63
2021/04/13 08:53:30;;;;;;;15.27;9.80;;;14.30;62.50;;;;;;5068339;28;20396;-61
2021/04/13 08:56:26;;;;;;;14.70;9.95;;;12.90;67.70;;;;;;5067553;28;20399;-60
2021/04/13 08:58:58;;;;;;;13.10;9.27;;;12.40;71.90;;;;;;5054440;28;20434;-61
2021/04/13 09:01:25;;;;;;;13.10;8.63;;;13.50;70.70;;;;;;5069564;28;20387;-63
2021/04/13 09:03:51;;;;;;;12.55;9.35;;;15.60;63.90;;;;;;5070072;28;20387;-62
2021/04/13 09:06:26;;;;;;;13.20;9.05;;;16.60;59.80;;;;;;5068957;28;20396;-63
2021/04/13 09:09:13;;;;;;;14.00;9.60;;;16.10;60.50;;;;;;5069798;28;20376;-60
2021/04/13 09:11:48;;;;;;;13.85;9.35;;;14.30;61.20;;;;;;5069871;28;20379;-63
2021/04/13 09:14:45;;;;;;;14.40;9.03;;;13.50;61.50;;;;;;5069047;28;20511;-62
2021/04/13 09:17:18;;;;;;;13.43;9.07;;;15.20;64.90;;;;;;5068457;28;20391;-64
2021/04/13 09:19:59;;;;;;;13.60;9.07;;;13.50;63.40;;;;;;5070131;28;20379;-63
2021/04/13 09:22:27;;;;;;;14.90;9.68;;;14.10;61.50;;;;;;5069919;28;20466;-63
2021/04/13 09:25:33;;;;;;;15.82;9.65;;;13.20;63.10;;;;;;5069564;28;20410;-61
2021/04/13 09:28:13;;;;;;;14.07;9.07;;;14.50;60.70;;;;;;5028227;28;20432;-63
2021/04/13 09:30:45;;;;;;;13.43;9.00;;;14.90;56.90;;;;;;5069849;28;20387;-63
2021/04/13 09:33:33;;;;;;;13.85;9.82;;;13.90;59.50;;;;;;5068886;28;20435;-62
2021/04/13 09:36:05;;;;;;;13.88;9.43;;;13.50;61.00;;;;;;5068577;28;20493;-59
2021/04/13 09:38:50;;;;;;;13.13;9.18;;;12.20;62.90;;;;;;5069998;28;20388;-60
2021/04/13 09:41:48;;;;;;;13.15;8.25;;;12.00;68.00;;;;;;5068400;28;20372;-60
2021/04/13 09:44:47;;;;;;;14.25;9.20;;;11.70;61.30;;;;;;5050684;28;20449;-62
2021/04/13 09:47:23;;;;;;;11.93;8.00;;;11.00;67.10;;;;;;5068526;28;20917;-61
2021/04/13 09:50:26;;;;;;;12.35;7.80;;;12.10;63.90;;;;;;5069238;28;20376;-63
2021/04/13 09:53:11;;;;;;;12.02;8.30;;;13.80;61.70;;;;;;5069424;28;20382;-63
2021/04/13 09:56:17;;;;;;;11.67;8.47;;;16.00;56.90;;;;;;5069430;28;20470;-63
2021/04/13 09:59:34;;;;;;;10.80;7.50;;;15.10;57.40;;;;;;5003927;28;20934;-63
2021/04/13 10:02:17;;;;;;;12.80;8.60;;;15.80;53.60;;;;;;5068416;28;20383;-61
2021/04/13 10:05:36;;;;;;;11.18;7.25;;;16.80;52.00;;;;;;5069147;28;20379;-60
2021/04/13 10:08:10;;;;;;;9.32;6.35;;;17.80;49.80;;;;;;5034222;28;20504;-60
2021/04/13 10:11:02;;;;;;;10.23;7.13;;;18.40;45.70;;;;;;5051290;28;20438;-60
2021/04/13 10:14:13;;;;;;;9.38;6.85;;;17.80;45.20;;;;;;5067054;28;20387;-61
2021/04/13 10:17:12;;;;;;;10.10;6.80;;;16.30;45.80;;;;;;5057661;28;20772;-62
2021/04/13 10:20:02;;;;;;;9.82;7.10;;;16.40;47.00;;;;;;5073124;28;20950;-62
2021/04/13 10:22:47;;;;;;;12.27;7.25;;;16.90;47.60;;;;;;5072573;28;20880;-62
2021/04/13 10:25:36;;;;;;;9.00;6.72;;;16.10;45.90;;;;;;5072138;28;20391;-62
2021/04/13 10:28:31;;;;;;;9.50;6.60;;;16.20;45.90;;;;;;5071994;28;20438;-61
2021/04/13 10:31:20;;;;;;;10.35;6.88;;;16.30;46.30;;;;;;5071991;28;20419;-60
2021/04/13 10:34:27;;;;;;;9.63;6.40;;;16.50;46.40;;;;;;5072720;28;20462;-61
2021/04/13 10:37:23;;;;;;;11.60;7.20;;;16.80;44.40;;;;;;5010946;28;20420;-61
2021/04/13 10:40:27;;;;;;;10.02;6.95;;;16.90;44.80;;;;;;5072280;28;20879;-61
2021/04/13 10:43:24;;;;;;;9.85;6.40;;;15.40;43.90;;;;;;5070845;28;20403;-60
2021/04/13 10:46:14;;;;;;;10.20;6.00;;;14.70;45.70;;;;;;5072395;28;20380;-62
2021/04/13 10:49:21;;;;;;;9.33;6.27;;;14.40;46.50;;;;;;5072489;28;20395;-61
2021/04/13 10:52:21;;;;;;;10.05;6.90;;;13.90;46.80;;;;;;5072577;28;20464;-62
2021/04/13 10:55:04;;;;;;;8.50;5.50;;;13.40;46.50;;;;;;5072414;28;20376;-61
2021/04/13 10:58:04;;;;;;;10.00;5.97;;;12.90;49.10;;;;;;5070082;28;20861;-61
2021/04/13 11:00:45;;;;;;;10.25;6.22;;;13.20;46.70;;;;;;5072053;28;20368;-61
2021/04/13 11:03:34;;;;;;;10.38;5.80;;;13.60;48.80;;;;;;5069415;28;20403;-61
2021/04/13 11:06:37;;;;;;;10.07;6.28;;;13.80;47.80;;;;;;5070757;28;20396;-61
2021/04/13 11:09:54;;;;;;;9.32;6.38;;;13.80;48.00;;;;;;5033158;28;20873;-62
2021/04/13 11:12:50;;;;;;;8.57;5.57;;;13.30;48.50;;;;;;5006947;28;20395;-61
2021/04/13 11:15:46;;;;;;;9.95;6.60;;;11.80;49.60;;;;;;5068082;28;20384;-60
2021/04/13 11:18:42;;;;;;;11.30;7.22;;;11.30;50.90;;;;;;5071408;28;20386;-61
2021/04/13 11:21:34;;;;;;;11.65;6.70;;;11.10;51.30;;;;;;5069281;28;20895;-61
2021/04/13 11:24:37;;;;;;;10.73;6.18;;;10.10;58.10;;;;;;5070474;28;20398;-61
2021/04/13 11:27:31;;;;;;;11.80;7.20;;;10.10;62.10;;;;;;5069307;28;20415;-61
2021/04/13 11:30:23;;;;;;;10.07;6.30;;;10.10;65.10;;;;;;5070511;28;20437;-59
2021/04/13 11:33:10;;;;;;;10.80;6.70;;;10.40;64.50;;;;;;5071466;28;20494;-61
2021/04/13 11:35:42;;;;;;;9.88;5.88;;;10.60;64.20;;;;;;5070035;28;20469;-61
2021/04/13 11:38:26;;;;;;;11.33;6.50;;;9.90;76.70;;;;;;5068653;28;20403;-61
2021/04/13 11:41:06;;;;;;;10.25;5.78;;;9.40;83.30;;;;;;5071461;28;20466;-61
2021/04/13 11:43:41;;;;;;;10.70;6.40;;;8.90;90.00;;;;;;5051107;28;20408;-61
2021/04/13 11:46:14;;;;;;;10.68;6.00;;;8.70;89.70;;;;;;5070369;28;20372;-61
2021/04/13 11:48:56;;;;;;;12.10;6.32;;;8.60;90.10;;;;;;5069147;28;20399;-61
2021/04/13 11:51:28;;;;;;;10.63;5.80;;;8.50;90.00;;;;;;5070844;28;20372;-60
2021/04/13 11:53:54;;;;;;;10.40;6.38;;;8.40;86.70;;;;;;5069613;28;20506;-60
2021/04/13 11:56:22;;;;;;;10.77;5.93;;;8.60;86.00;;;;;;5070407;28;20381;-63
2021/04/13 11:59:16;;;;;;;10.98;6.53;;;9.00;86.20;;;;;;5069059;28;20761;-62
2021/04/13 12:01:47;;;;;;;11.18;6.20;;;9.50;84.50;;;;;;5071130;28;20375;-63
2021/04/13 12:04:39;;;;;;;9.38;5.60;;;10.00;82.20;;;;;;5068870;28;20467;-61
2021/04/13 12:07:07;;;;;;;10.32;6.13;;;10.30;80.90;;;;;;5056921;28;20421;-62
2021/04/13 12:09:37;;;;;;;11.27;5.60;;;10.80;74.00;;;;;;5071122;28;20383;-60
2021/04/13 12:12:06;;;;;;;11.75;6.30;;;10.50;74.20;;;;;;5063725;28;20426;-62
2021/04/13 12:14:40;;;;;;;11.05;6.00;;;10.70;76.10;;;;;;5070777;28;20375;-62
2021/04/13 12:17:30;;;;;;;10.18;5.80;;;11.10;72.80;;;;;;5065766;28;20431;-62
2021/04/13 12:20:19;;;;;;;10.68;6.18;;;11.50;70.40;;;;;;5070536;28;20394;-59
2021/04/13 12:22:46;;;;;;;9.15;5.53;;;11.60;64.20;;;;;;5050895;28;20768;-62
2021/04/13 12:25:33;;;;;;;9.80;5.20;;;13.10;64.50;;;;;;5069492;28;20383;-62
2021/04/13 12:28:14;;;;;;;8.98;5.38;;;10.80;61.50;;;;;;5069786;28;20463;-60
2021/04/13 12:30:43;;;;;;;9.75;5.40;;;10.50;64.00;;;;;;5070449;28;20394;-62
2021/04/13 12:33:29;;;;;;;10.07;5.55;;;10.50;65.00;;;;;;5069431;28;20494;-62
2021/04/13 12:35:58;;;;;;;8.87;5.50;;;10.50;64.00;;;;;;5029079;28;20781;-62
2021/04/13 12:38:42;;;;;;;8.45;4.90;;;10.50;63.00;;;;;;5069796;28;20380;-62
2021/04/13 12:41:19;;;;;;;9.13;5.50;;;10.60;59.40;;;;;;5069800;28;20470;-62
2021/04/13 12:44:17;;;;;;;9.70;4.90;;;10.80;59.30;;;;;;5070045;28;20379;-62
2021/04/13 12:46:47;;;;;;;9.27;4.30;;;11.10;58.70;;;;;;5070455;28;20402;-62
2021/04/13 12:49:13;;;;;;;7.10;3.90;;;11.00;57.60;;;;;;5069698;28;20375;-63
2021/04/13 12:52:01;;;;;;;7.50;4.20;;;10.80;58.90;;;;;;5070346;28;20368;-62
2021/04/13 12:54:38;;;;;;;7.65;3.70;;;10.60;58.70;;;;;;5069905;28;20376;-63
2021/04/13 12:57:04;;;;;;;5.97;3.30;;;10.30;58.10;;;;;;5069224;28;20396;-62
2021/04/13 12:59:31;;;;;;;7.80;3.60;;;9.90;58.20;;;;;;5069870;28;20853;-62
2021/04/13 13:01:57;;;;;;;6.00;2.83;;;9.90;58.00;;;;;;5070040;28;20379;-60
2021/04/13 13:04:33;;;;;;;5.10;2.60;;;9.80;56.40;;;;;;5069284;28;20371;-62
2021/04/13 13:07:00;;;;;;;5.35;2.40;;;9.80;54.80;;;;;;5069807;28;20399;-60
2021/04/13 13:09:39;;;;;;;4.72;2.10;;;9.70;51.10;;;;;;5052160;28;20379;-62
2021/04/13 13:12:09;;;;;;;5.70;2.10;;;9.80;49.80;;;;;;5069476;28;20391;-63
2021/04/13 13:14:41;;;;;;;6.10;2.58;;;9.90;48.90;;;;;;5070084;28;20390;-62
2021/04/13 13:17:09;;;;;;;5.50;2.50;;;9.80;49.80;;;;;;5069410;28;20372;-64
2021/04/13 13:19:49;;;;;;;7.73;2.60;;;9.60;49.90;;;;;;5069770;28;20846;-64
2021/04/13 13:22:28;;;;;;;6.50;2.60;;;9.50;50.60;;;;;;5069156;28;20379;-62
2021/04/13 13:24:55;;;;;;;6.97;2.50;;;9.70;52.40;;;;;;5069908;28;20403;-63
2021/04/13 13:27:27;;;;;;;6.47;3.20;;;9.90;53.30;;;;;;5068854;28;20449;-62
2021/04/13 13:29:53;;;;;;;6.25;3.40;;;10.20;51.20;;;;;;5069961;28;20376;-62
2021/04/13 13:32:23;;;;;;;7.50;3.20;;;10.70;50.10;;;;;;5068231;28;20399;-63
2021/04/13 13:34:51;;;;;;;6.90;4.00;;;10.80;48.90;;;;;;5069028;28;20372;-62
2021/04/13 13:37:21;;;;;;;8.30;4.37;;;10.90;53.00;;;;;;5068522;28;20383;-63
2021/04/13 13:39:47;;;;;;;8.63;4.37;;;11.10;55.30;;;;;;5069684;28;20380;-62
2021/04/13 13:42:16;;;;;;;7.20;4.00;;;10.70;54.90;;;;;;5050575;28;20391;-63